sensor_id;sensor_type;location;lat;lon;timestamp;P1;durP1;ratioP1;P2;durP2;ratioP2
52440;SDS011;39611;46.062;8.950;2023-03-24T00:00:13;3.60;;;1.90;;
52440;SDS011;39611;46.062;8.950;2023-03-24T00:02:42;4.65;;;2.35;;
52440;SDS011;39611;46.062;8.950;2023-03-24T00:05:11;5.05;;;2.15;;
52440;SDS011;39611;46.062;8.950;2023-03-24T00:07:40;4.38;;;2.42;;
52440;SDS011;39611;46.062;8.950;2023-03-24T00:10:10;5.35;;;2.22;;
52440;SDS011;39611;46.062;8.950;2023-03-24T00:12:40;3.63;;;2.22;;
52440;SDS011;39611;46.062;8.950;2023-03-24T00:15:09;4.70;;;1.98;;
52440;SDS011;39611;46.062;8.950;2023-03-24T00:17:38;5.35;;;2.25;;
52440;SDS011;39611;46.062;8.950;2023-03-24T00:20:06;2.63;;;1.83;;
52440;SDS011;39611;46.062;8.950;2023-03-24T00:22:40;4.22;;;2.03;;
52440;SDS011;39611;46.062;8.950;2023-03-24T00:25:09;4.25;;;2.17;;
52440;SDS011;39611;46.062;8.950;2023-03-24T00:27:36;4.97;;;2.47;;
52440;SDS011;39611;46.062;8.950;2023-03-24T00:30:07;6.57;;;2.40;;
52440;SDS011;39611;46.062;8.950;2023-03-24T00:32:36;4.05;;;2.50;;
52440;SDS011;39611;46.062;8.950;2023-03-24T00:35:04;5.68;;;2.40;;
52440;SDS011;39611;46.062;8.950;2023-03-24T00:37:37;4.70;;;2.10;;
52440;SDS011;39611;46.062;8.950;2023-03-24T00:40:05;6.95;;;2.10;;
52440;SDS011;39611;46.062;8.950;2023-03-24T00:42:38;4.15;;;1.95;;
52440;SDS011;39611;46.062;8.950;2023-03-24T00:45:06;5.30;;;1.70;;
52440;SDS011;39611;46.062;8.950;2023-03-24T00:47:36;4.35;;;1.80;;
52440;SDS011;39611;46.062;8.950;2023-03-24T00:50:04;4.95;;;2.75;;
52440;SDS011;39611;46.062;8.950;2023-03-24T00:52:31;5.97;;;2.33;;
52440;SDS011;39611;46.062;8.950;2023-03-24T00:55:02;5.15;;;2.40;;
52440;SDS011;39611;46.062;8.950;2023-03-24T00:57:30;5.47;;;2.33;;
52440;SDS011;39611;46.062;8.950;2023-03-24T01:00:00;3.60;;;2.42;;
52440;SDS011;39611;46.062;8.950;2023-03-24T01:02:38;5.70;;;2.92;;
52440;SDS011;39611;46.062;8.950;2023-03-24T01:05:05;6.65;;;2.42;;
52440;SDS011;39611;46.062;8.950;2023-03-24T01:07:34;4.70;;;2.35;;
52440;SDS011;39611;46.062;8.950;2023-03-24T01:10:00;8.07;;;2.30;;
52440;SDS011;39611;46.062;8.950;2023-03-24T01:12:31;8.40;;;2.53;;
52440;SDS011;39611;46.062;8.950;2023-03-24T01:15:03;3.83;;;2.15;;
52440;SDS011;39611;46.062;8.950;2023-03-24T01:17:32;5.07;;;2.58;;
52440;SDS011;39611;46.062;8.950;2023-03-24T01:19:59;8.32;;;2.70;;
52440;SDS011;39611;46.062;8.950;2023-03-24T01:22:32;4.80;;;2.35;;
52440;SDS011;39611;46.062;8.950;2023-03-24T01:25:03;8.38;;;2.63;;
52440;SDS011;39611;46.062;8.950;2023-03-24T01:27:30;4.90;;;2.35;;
52440;SDS011;39611;46.062;8.950;2023-03-24T01:29:58;7.97;;;2.33;;
52440;SDS011;39611;46.062;8.950;2023-03-24T01:32:25;5.25;;;2.50;;
52440;SDS011;39611;46.062;8.950;2023-03-24T01:34:52;5.15;;;2.42;;
52440;SDS011;39611;46.062;8.950;2023-03-24T01:37:18;3.88;;;2.05;;
52440;SDS011;39611;46.062;8.950;2023-03-24T01:39:45;6.10;;;3.28;;
52440;SDS011;39611;46.062;8.950;2023-03-24T01:42:19;4.93;;;2.47;;
52440;SDS011;39611;46.062;8.950;2023-03-24T01:44:48;5.93;;;2.17;;
52440;SDS011;39611;46.062;8.950;2023-03-24T01:47:16;5.30;;;2.40;;
52440;SDS011;39611;46.062;8.950;2023-03-24T01:49:47;5.55;;;2.60;;
52440;SDS011;39611;46.062;8.950;2023-03-24T01:52:20;3.30;;;2.00;;
52440;SDS011;39611;46.062;8.950;2023-03-24T01:54:54;5.10;;;2.15;;
52440;SDS011;39611;46.062;8.950;2023-03-24T01:57:28;4.10;;;2.13;;
52440;SDS011;39611;46.062;8.950;2023-03-24T01:59:57;5.03;;;2.05;;
52440;SDS011;39611;46.062;8.950;2023-03-24T02:02:29;4.35;;;1.83;;
52440;SDS011;39611;46.062;8.950;2023-03-24T02:05:01;7.15;;;2.47;;
52440;SDS011;39611;46.062;8.950;2023-03-24T02:10:10;3.90;;;1.90;;
52440;SDS011;39611;46.062;8.950;2023-03-24T02:12:39;3.85;;;1.95;;
52440;SDS011;39611;46.062;8.950;2023-03-24T02:15:06;5.90;;;2.17;;
52440;SDS011;39611;46.062;8.950;2023-03-24T02:17:45;3.65;;;1.80;;
52440;SDS011;39611;46.062;8.950;2023-03-24T02:34:08;4.03;;;2.03;;
52440;SDS011;39611;46.062;8.950;2023-03-24T02:39:54;6.57;;;1.95;;
52440;SDS011;39611;46.062;8.950;2023-03-24T02:45:17;4.85;;;1.85;;
52440;SDS011;39611;46.062;8.950;2023-03-24T02:48:09;6.80;;;2.25;;
52440;SDS011;39611;46.062;8.950;2023-03-24T02:50:57;6.20;;;2.30;;
52440;SDS011;39611;46.062;8.950;2023-03-24T02:53:29;6.30;;;1.92;;
52440;SDS011;39611;46.062;8.950;2023-03-24T03:05:05;3.75;;;1.73;;
52440;SDS011;39611;46.062;8.950;2023-03-24T03:07:03;4.32;;;2.10;;
52440;SDS011;39611;46.062;8.950;2023-03-24T03:09:38;2.90;;;1.63;;
52440;SDS011;39611;46.062;8.950;2023-03-24T03:12:09;2.20;;;1.20;;
52440;SDS011;39611;46.062;8.950;2023-03-24T03:14:39;5.97;;;1.40;;
52440;SDS011;39611;46.062;8.950;2023-03-24T03:17:12;3.80;;;1.70;;
52440;SDS011;39611;46.062;8.950;2023-03-24T03:19:44;5.40;;;2.17;;
52440;SDS011;39611;46.062;8.950;2023-03-24T03:22:19;4.20;;;1.88;;
52440;SDS011;39611;46.062;8.950;2023-03-24T03:24:50;7.13;;;2.30;;
52440;SDS011;39611;46.062;8.950;2023-03-24T03:27:20;6.55;;;2.38;;
52440;SDS011;39611;46.062;8.950;2023-03-24T03:29:58;4.63;;;2.08;;
52440;SDS011;39611;46.062;8.950;2023-03-24T03:32:30;3.40;;;1.77;;
52440;SDS011;39611;46.062;8.950;2023-03-24T03:35:12;4.28;;;2.17;;
52440;SDS011;39611;46.062;8.950;2023-03-24T03:40:31;4.60;;;1.98;;
52440;SDS011;39611;46.062;8.950;2023-03-24T03:43:21;4.68;;;2.25;;
52440;SDS011;39611;46.062;8.950;2023-03-24T03:45:48;4.55;;;1.95;;
52440;SDS011;39611;46.062;8.950;2023-03-24T03:48:15;6.10;;;2.75;;
52440;SDS011;39611;46.062;8.950;2023-03-24T03:50:43;4.60;;;2.20;;
52440;SDS011;39611;46.062;8.950;2023-03-24T03:53:11;5.78;;;2.45;;
52440;SDS011;39611;46.062;8.950;2023-03-24T03:55:41;3.30;;;1.85;;
52440;SDS011;39611;46.062;8.950;2023-03-24T03:58:08;4.47;;;2.17;;
52440;SDS011;39611;46.062;8.950;2023-03-24T04:00:35;5.35;;;2.38;;
52440;SDS011;39611;46.062;8.950;2023-03-24T04:05:52;6.10;;;3.08;;
52440;SDS011;39611;46.062;8.950;2023-03-24T04:08:47;4.88;;;2.72;;
52440;SDS011;39611;46.062;8.950;2023-03-24T04:17:23;4.28;;;2.28;;
52440;SDS011;39611;46.062;8.950;2023-03-24T04:20:04;4.72;;;1.88;;
52440;SDS011;39611;46.062;8.950;2023-03-24T04:25:12;3.88;;;2.20;;
52440;SDS011;39611;46.062;8.950;2023-03-24T04:27:57;4.80;;;2.33;;
52440;SDS011;39611;46.062;8.950;2023-03-24T04:30:32;3.83;;;1.83;;
52440;SDS011;39611;46.062;8.950;2023-03-24T04:33:13;6.05;;;2.22;;
52440;SDS011;39611;46.062;8.950;2023-03-24T04:35:48;4.30;;;2.40;;
52440;SDS011;39611;46.062;8.950;2023-03-24T04:38:23;3.35;;;1.92;;
52440;SDS011;39611;46.062;8.950;2023-03-24T04:40:53;4.18;;;2.00;;
52440;SDS011;39611;46.062;8.950;2023-03-24T04:43:22;5.00;;;2.58;;
52440;SDS011;39611;46.062;8.950;2023-03-24T04:45:53;4.70;;;2.88;;
52440;SDS011;39611;46.062;8.950;2023-03-24T04:48:23;3.78;;;2.00;;
52440;SDS011;39611;46.062;8.950;2023-03-24T04:53:28;4.43;;;2.50;;
52440;SDS011;39611;46.062;8.950;2023-03-24T04:58:52;9.43;;;2.88;;
52440;SDS011;39611;46.062;8.950;2023-03-24T05:01:19;6.43;;;3.03;;
52440;SDS011;39611;46.062;8.950;2023-03-24T05:03:47;5.65;;;2.60;;
52440;SDS011;39611;46.062;8.950;2023-03-24T05:06:14;6.25;;;2.58;;
52440;SDS011;39611;46.062;8.950;2023-03-24T05:08:42;6.82;;;2.92;;
52440;SDS011;39611;46.062;8.950;2023-03-24T05:11:08;4.13;;;2.00;;
52440;SDS011;39611;46.062;8.950;2023-03-24T05:13:35;6.63;;;2.47;;
52440;SDS011;39611;46.062;8.950;2023-03-24T05:16:01;5.68;;;2.95;;
52440;SDS011;39611;46.062;8.950;2023-03-24T05:18:28;4.05;;;2.25;;
52440;SDS011;39611;46.062;8.950;2023-03-24T05:20:55;5.63;;;2.90;;
52440;SDS011;39611;46.062;8.950;2023-03-24T05:23:21;6.00;;;3.08;;
52440;SDS011;39611;46.062;8.950;2023-03-24T05:25:48;6.03;;;3.47;;
52440;SDS011;39611;46.062;8.950;2023-03-24T05:28:15;6.88;;;4.00;;
52440;SDS011;39611;46.062;8.950;2023-03-24T05:30:42;8.93;;;3.75;;
52440;SDS011;39611;46.062;8.950;2023-03-24T05:33:08;10.18;;;3.08;;
52440;SDS011;39611;46.062;8.950;2023-03-24T05:35:35;8.05;;;3.55;;
52440;SDS011;39611;46.062;8.950;2023-03-24T05:38:01;6.28;;;2.90;;
52440;SDS011;39611;46.062;8.950;2023-03-24T05:40:28;6.75;;;2.55;;
52440;SDS011;39611;46.062;8.950;2023-03-24T05:42:54;7.38;;;2.53;;
52440;SDS011;39611;46.062;8.950;2023-03-24T05:45:21;5.97;;;2.78;;
52440;SDS011;39611;46.062;8.950;2023-03-24T05:47:47;8.55;;;2.58;;
52440;SDS011;39611;46.062;8.950;2023-03-24T05:50:14;3.88;;;2.53;;
52440;SDS011;39611;46.062;8.950;2023-03-24T05:52:40;4.70;;;2.63;;
52440;SDS011;39611;46.062;8.950;2023-03-24T05:55:07;8.32;;;3.13;;
52440;SDS011;39611;46.062;8.950;2023-03-24T05:57:34;6.18;;;2.65;;
52440;SDS011;39611;46.062;8.950;2023-03-24T06:00:02;6.30;;;2.50;;
52440;SDS011;39611;46.062;8.950;2023-03-24T06:02:40;4.90;;;2.60;;
52440;SDS011;39611;46.062;8.950;2023-03-24T06:05:07;6.05;;;2.33;;
52440;SDS011;39611;46.062;8.950;2023-03-24T06:07:35;5.43;;;2.50;;
52440;SDS011;39611;46.062;8.950;2023-03-24T06:10:03;3.67;;;2.00;;
52440;SDS011;39611;46.062;8.950;2023-03-24T06:12:32;4.75;;;2.58;;
52440;SDS011;39611;46.062;8.950;2023-03-24T06:14:59;6.55;;;2.25;;
52440;SDS011;39611;46.062;8.950;2023-03-24T06:17:29;6.28;;;3.35;;
52440;SDS011;39611;46.062;8.950;2023-03-24T06:19:56;4.32;;;2.35;;
52440;SDS011;39611;46.062;8.950;2023-03-24T06:22:28;5.28;;;2.80;;
52440;SDS011;39611;46.062;8.950;2023-03-24T06:24:55;5.10;;;2.90;;
52440;SDS011;39611;46.062;8.950;2023-03-24T06:27:26;5.70;;;2.80;;
52440;SDS011;39611;46.062;8.950;2023-03-24T06:29:56;4.78;;;2.92;;
52440;SDS011;39611;46.062;8.950;2023-03-24T06:32:22;6.88;;;3.33;;
52440;SDS011;39611;46.062;8.950;2023-03-24T06:34:49;8.48;;;3.63;;
52440;SDS011;39611;46.062;8.950;2023-03-24T06:37:16;7.40;;;2.85;;
52440;SDS011;39611;46.062;8.950;2023-03-24T06:39:43;5.78;;;2.78;;
52440;SDS011;39611;46.062;8.950;2023-03-24T06:42:10;6.10;;;2.97;;
52440;SDS011;39611;46.062;8.950;2023-03-24T06:44:36;4.82;;;2.53;;
52440;SDS011;39611;46.062;8.950;2023-03-24T06:47:03;6.03;;;2.85;;
52440;SDS011;39611;46.062;8.950;2023-03-24T06:49:29;4.65;;;2.50;;
52440;SDS011;39611;46.062;8.950;2023-03-24T06:51:56;6.40;;;3.00;;
52440;SDS011;39611;46.062;8.950;2023-03-24T06:54:22;6.43;;;3.33;;
52440;SDS011;39611;46.062;8.950;2023-03-24T06:56:49;8.13;;;2.50;;
52440;SDS011;39611;46.062;8.950;2023-03-24T06:59:16;6.82;;;2.63;;
52440;SDS011;39611;46.062;8.950;2023-03-24T07:01:43;6.80;;;3.17;;
52440;SDS011;39611;46.062;8.950;2023-03-24T07:04:09;7.80;;;3.10;;
52440;SDS011;39611;46.062;8.950;2023-03-24T07:06:36;11.38;;;3.15;;
52440;SDS011;39611;46.062;8.950;2023-03-24T07:09:21;23.73;;;4.57;;
52440;SDS011;39611;46.062;8.950;2023-03-24T07:11:48;20.00;;;4.20;;
52440;SDS011;39611;46.062;8.950;2023-03-24T07:14:14;6.93;;;2.97;;
52440;SDS011;39611;46.062;8.950;2023-03-24T07:16:41;8.90;;;3.03;;
52440;SDS011;39611;46.062;8.950;2023-03-24T07:19:07;6.60;;;2.90;;
52440;SDS011;39611;46.062;8.950;2023-03-24T07:21:34;8.10;;;2.78;;
52440;SDS011;39611;46.062;8.950;2023-03-24T07:24:00;7.97;;;2.55;;
52440;SDS011;39611;46.062;8.950;2023-03-24T07:26:27;5.20;;;2.58;;
52440;SDS011;39611;46.062;8.950;2023-03-24T07:28:53;8.63;;;3.08;;
52440;SDS011;39611;46.062;8.950;2023-03-24T07:31:21;5.68;;;2.60;;
52440;SDS011;39611;46.062;8.950;2023-03-24T07:33:48;4.88;;;2.58;;
52440;SDS011;39611;46.062;8.950;2023-03-24T07:36:14;5.07;;;2.35;;
52440;SDS011;39611;46.062;8.950;2023-03-24T07:38:42;3.88;;;2.38;;
52440;SDS011;39611;46.062;8.950;2023-03-24T07:41:08;6.55;;;3.33;;
52440;SDS011;39611;46.062;8.950;2023-03-24T07:43:35;5.93;;;2.85;;
52440;SDS011;39611;46.062;8.950;2023-03-24T07:46:02;4.97;;;2.63;;
52440;SDS011;39611;46.062;8.950;2023-03-24T07:48:28;6.00;;;2.50;;
52440;SDS011;39611;46.062;8.950;2023-03-24T07:50:55;5.88;;;2.83;;
52440;SDS011;39611;46.062;8.950;2023-03-24T07:53:21;6.18;;;2.97;;
52440;SDS011;39611;46.062;8.950;2023-03-24T07:55:48;6.10;;;3.00;;
52440;SDS011;39611;46.062;8.950;2023-03-24T07:58:14;8.18;;;3.85;;
52440;SDS011;39611;46.062;8.950;2023-03-24T08:00:41;13.00;;;5.63;;
52440;SDS011;39611;46.062;8.950;2023-03-24T08:03:08;13.38;;;5.10;;
52440;SDS011;39611;46.062;8.950;2023-03-24T08:05:39;18.23;;;6.55;;
52440;SDS011;39611;46.062;8.950;2023-03-24T08:08:07;12.00;;;5.18;;
52440;SDS011;39611;46.062;8.950;2023-03-24T08:10:33;5.88;;;3.00;;
52440;SDS011;39611;46.062;8.950;2023-03-24T08:13:00;9.90;;;2.55;;
52440;SDS011;39611;46.062;8.950;2023-03-24T08:15:27;4.70;;;3.00;;
52440;SDS011;39611;46.062;8.950;2023-03-24T08:17:53;5.63;;;2.70;;
52440;SDS011;39611;46.062;8.950;2023-03-24T08:20:22;4.97;;;2.97;;
52440;SDS011;39611;46.062;8.950;2023-03-24T08:22:50;10.45;;;3.58;;
52440;SDS011;39611;46.062;8.950;2023-03-24T08:25:19;8.13;;;2.78;;
52440;SDS011;39611;46.062;8.950;2023-03-24T08:27:47;5.40;;;3.00;;
52440;SDS011;39611;46.062;8.950;2023-03-24T08:30:15;7.28;;;2.80;;
52440;SDS011;39611;46.062;8.950;2023-03-24T08:32:45;7.72;;;3.20;;
52440;SDS011;39611;46.062;8.950;2023-03-24T08:35:13;7.68;;;3.10;;
52440;SDS011;39611;46.062;8.950;2023-03-24T08:37:41;5.22;;;2.53;;
52440;SDS011;39611;46.062;8.950;2023-03-24T08:40:12;5.15;;;2.53;;
52440;SDS011;39611;46.062;8.950;2023-03-24T08:42:43;7.20;;;3.10;;
52440;SDS011;39611;46.062;8.950;2023-03-24T08:45:12;5.35;;;2.95;;
52440;SDS011;39611;46.062;8.950;2023-03-24T08:47:39;4.55;;;2.47;;
52440;SDS011;39611;46.062;8.950;2023-03-24T08:50:06;5.13;;;2.55;;
52440;SDS011;39611;46.062;8.950;2023-03-24T08:52:35;6.38;;;2.70;;
52440;SDS011;39611;46.062;8.950;2023-03-24T08:55:01;5.72;;;2.78;;
52440;SDS011;39611;46.062;8.950;2023-03-24T08:57:28;9.10;;;3.03;;
52440;SDS011;39611;46.062;8.950;2023-03-24T08:59:55;7.65;;;2.70;;
52440;SDS011;39611;46.062;8.950;2023-03-24T09:02:21;6.78;;;2.92;;
52440;SDS011;39611;46.062;8.950;2023-03-24T09:04:48;6.78;;;3.25;;
52440;SDS011;39611;46.062;8.950;2023-03-24T09:07:19;6.50;;;2.53;;
52440;SDS011;39611;46.062;8.950;2023-03-24T09:09:46;7.25;;;2.45;;
52440;SDS011;39611;46.062;8.950;2023-03-24T09:12:12;6.13;;;2.58;;
52440;SDS011;39611;46.062;8.950;2023-03-24T09:14:38;6.97;;;3.00;;
52440;SDS011;39611;46.062;8.950;2023-03-24T09:17:05;4.82;;;2.42;;
52440;SDS011;39611;46.062;8.950;2023-03-24T09:19:32;3.50;;;2.10;;
52440;SDS011;39611;46.062;8.950;2023-03-24T09:21:59;5.43;;;2.97;;
52440;SDS011;39611;46.062;8.950;2023-03-24T09:24:25;4.35;;;2.13;;
52440;SDS011;39611;46.062;8.950;2023-03-24T09:26:52;5.28;;;2.58;;
52440;SDS011;39611;46.062;8.950;2023-03-24T09:29:18;4.05;;;2.33;;
52440;SDS011;39611;46.062;8.950;2023-03-24T09:31:45;4.10;;;1.98;;
52440;SDS011;39611;46.062;8.950;2023-03-24T09:34:12;2.97;;;1.88;;
52440;SDS011;39611;46.062;8.950;2023-03-24T09:36:38;6.38;;;2.63;;
52440;SDS011;39611;46.062;8.950;2023-03-24T09:39:05;6.13;;;2.65;;
52440;SDS011;39611;46.062;8.950;2023-03-24T09:41:31;6.55;;;3.03;;
52440;SDS011;39611;46.062;8.950;2023-03-24T09:44:09;7.15;;;3.40;;
52440;SDS011;39611;46.062;8.950;2023-03-24T09:49:20;6.20;;;3.28;;
52440;SDS011;39611;46.062;8.950;2023-03-24T09:51:50;8.15;;;3.20;;
52440;SDS011;39611;46.062;8.950;2023-03-24T09:55:07;5.93;;;3.03;;
52440;SDS011;39611;46.062;8.950;2023-03-24T09:57:24;5.75;;;2.88;;
52440;SDS011;39611;46.062;8.950;2023-03-24T09:59:54;4.95;;;2.80;;
52440;SDS011;39611;46.062;8.950;2023-03-24T10:02:21;4.80;;;2.60;;
52440;SDS011;39611;46.062;8.950;2023-03-24T10:04:48;8.70;;;2.78;;
52440;SDS011;39611;46.062;8.950;2023-03-24T10:07:24;6.53;;;3.45;;
52440;SDS011;39611;46.062;8.950;2023-03-24T10:09:58;7.85;;;3.58;;
52440;SDS011;39611;46.062;8.950;2023-03-24T10:28:24;5.32;;;2.38;;
52440;SDS011;39611;46.062;8.950;2023-03-24T10:30:58;3.20;;;2.00;;
52440;SDS011;39611;46.062;8.950;2023-03-24T10:33:29;4.77;;;1.60;;
52440;SDS011;39611;46.062;8.950;2023-03-24T10:36:03;6.55;;;2.60;;
52440;SDS011;39611;46.062;8.950;2023-03-24T10:38:34;4.00;;;1.67;;
52440;SDS011;39611;46.062;8.950;2023-03-24T10:41:01;4.95;;;2.33;;
52440;SDS011;39611;46.062;8.950;2023-03-24T10:43:28;3.28;;;1.98;;
52440;SDS011;39611;46.062;8.950;2023-03-24T10:45:55;3.95;;;2.25;;
52440;SDS011;39611;46.062;8.950;2023-03-24T10:49:24;4.30;;;2.20;;
52440;SDS011;39611;46.062;8.950;2023-03-24T10:51:46;5.80;;;2.42;;
52440;SDS011;39611;46.062;8.950;2023-03-24T10:54:22;4.30;;;2.50;;
52440;SDS011;39611;46.062;8.950;2023-03-24T10:59:30;3.75;;;2.00;;
52440;SDS011;39611;46.062;8.950;2023-03-24T11:04:43;6.95;;;3.25;;
52440;SDS011;39611;46.062;8.950;2023-03-24T11:07:16;6.85;;;2.25;;
52440;SDS011;39611;46.062;8.950;2023-03-24T11:09:53;5.93;;;2.45;;
52440;SDS011;39611;46.062;8.950;2023-03-24T11:12:25;5.03;;;2.10;;
52440;SDS011;39611;46.062;8.950;2023-03-24T11:15:00;5.10;;;2.40;;
52440;SDS011;39611;46.062;8.950;2023-03-24T11:17:52;4.20;;;1.83;;
52440;SDS011;39611;46.062;8.950;2023-03-24T11:23:00;2.55;;;1.30;;
52440;SDS011;39611;46.062;8.950;2023-03-24T11:25:30;4.78;;;1.80;;
52440;SDS011;39611;46.062;8.950;2023-03-24T11:28:04;3.35;;;1.52;;
52440;SDS011;39611;46.062;8.950;2023-03-24T11:33:19;4.78;;;1.20;;
52440;SDS011;39611;46.062;8.950;2023-03-24T11:36:03;3.05;;;1.60;;
52440;SDS011;39611;46.062;8.950;2023-03-24T11:41:40;1.98;;;1.10;;
52440;SDS011;39611;46.062;8.950;2023-03-24T11:44:21;2.97;;;1.50;;
52440;SDS011;39611;46.062;8.950;2023-03-24T11:46:52;3.30;;;1.77;;
52440;SDS011;39611;46.062;8.950;2023-03-24T11:49:25;2.90;;;1.20;;
52440;SDS011;39611;46.062;8.950;2023-03-24T11:51:55;4.15;;;1.65;;
52440;SDS011;39611;46.062;8.950;2023-03-24T11:54:26;2.97;;;1.27;;
52440;SDS011;39611;46.062;8.950;2023-03-24T11:56:58;2.72;;;1.50;;
52440;SDS011;39611;46.062;8.950;2023-03-24T12:15:31;11.98;;;3.08;;
52440;SDS011;39611;46.062;8.950;2023-03-24T12:20:52;2.03;;;1.20;;
52440;SDS011;39611;46.062;8.950;2023-03-24T12:23:25;2.03;;;1.02;;
52440;SDS011;39611;46.062;8.950;2023-03-24T12:34:28;2.50;;;1.45;;
52440;SDS011;39611;46.062;8.950;2023-03-24T12:40:03;2.92;;;1.75;;
52440;SDS011;39611;46.062;8.950;2023-03-24T12:42:45;3.42;;;1.70;;
52440;SDS011;39611;46.062;8.950;2023-03-24T12:45:18;4.80;;;2.80;;
52440;SDS011;39611;46.062;8.950;2023-03-24T12:48:04;4.63;;;2.80;;
52440;SDS011;39611;46.062;8.950;2023-03-24T12:53:48;4.57;;;2.78;;
52440;SDS011;39611;46.062;8.950;2023-03-24T12:56:20;3.03;;;2.05;;
52440;SDS011;39611;46.062;8.950;2023-03-24T12:59:00;4.72;;;3.25;;
52440;SDS011;39611;46.062;8.950;2023-03-24T13:01:34;6.53;;;2.63;;
52440;SDS011;39611;46.062;8.950;2023-03-24T13:04:09;4.88;;;2.33;;
52440;SDS011;39611;46.062;8.950;2023-03-24T13:06:58;6.68;;;3.35;;
52440;SDS011;39611;46.062;8.950;2023-03-24T13:12:19;15.57;;;6.53;;
52440;SDS011;39611;46.062;8.950;2023-03-24T13:17:41;4.05;;;2.67;;
52440;SDS011;39611;46.062;8.950;2023-03-24T13:20:18;3.95;;;2.65;;
52440;SDS011;39611;46.062;8.950;2023-03-24T13:22:54;9.18;;;4.55;;
52440;SDS011;39611;46.062;8.950;2023-03-24T13:25:29;7.80;;;3.38;;
52440;SDS011;39611;46.062;8.950;2023-03-24T13:28:06;3.42;;;2.42;;
52440;SDS011;39611;46.062;8.950;2023-03-24T13:30:39;7.05;;;3.45;;
52440;SDS011;39611;46.062;8.950;2023-03-24T13:33:41;3.83;;;2.75;;
52440;SDS011;39611;46.062;8.950;2023-03-24T13:36:26;4.38;;;2.35;;
52440;SDS011;39611;46.062;8.950;2023-03-24T13:38:54;5.40;;;2.85;;
52440;SDS011;39611;46.062;8.950;2023-03-24T13:41:24;5.40;;;2.38;;
52440;SDS011;39611;46.062;8.950;2023-03-24T13:44:00;3.45;;;2.20;;
52440;SDS011;39611;46.062;8.950;2023-03-24T13:46:31;5.05;;;2.42;;
52440;SDS011;39611;46.062;8.950;2023-03-24T13:49:02;5.25;;;3.00;;
52440;SDS011;39611;46.062;8.950;2023-03-24T13:51:33;5.38;;;3.08;;
52440;SDS011;39611;46.062;8.950;2023-03-24T13:54:08;6.85;;;3.60;;
52440;SDS011;39611;46.062;8.950;2023-03-24T13:56:46;5.78;;;3.30;;
52440;SDS011;39611;46.062;8.950;2023-03-24T14:00:16;5.97;;;3.55;;
52440;SDS011;39611;46.062;8.950;2023-03-24T14:02:46;4.55;;;3.20;;
52440;SDS011;39611;46.062;8.950;2023-03-24T14:07:50;4.47;;;3.05;;
52440;SDS011;39611;46.062;8.950;2023-03-24T14:13:04;5.60;;;3.45;;
52440;SDS011;39611;46.062;8.950;2023-03-24T14:15:56;6.97;;;3.88;;
52440;SDS011;39611;46.062;8.950;2023-03-24T14:26:10;7.47;;;3.60;;
52440;SDS011;39611;46.062;8.950;2023-03-24T14:28:39;7.07;;;3.75;;
52440;SDS011;39611;46.062;8.950;2023-03-24T14:33:38;6.68;;;4.15;;
52440;SDS011;39611;46.062;8.950;2023-03-24T14:36:06;7.60;;;4.28;;
52440;SDS011;39611;46.062;8.950;2023-03-24T14:38:39;8.20;;;5.03;;
52440;SDS011;39611;46.062;8.950;2023-03-24T14:41:13;6.82;;;3.78;;
52440;SDS011;39611;46.062;8.950;2023-03-24T14:48:54;37.05;;;14.80;;
52440;SDS011;39611;46.062;8.950;2023-03-24T14:53:50;12.55;;;5.13;;
52440;SDS011;39611;46.062;8.950;2023-03-24T14:56:21;7.18;;;4.68;;
52440;SDS011;39611;46.062;8.950;2023-03-24T14:58:49;7.47;;;4.43;;
52440;SDS011;39611;46.062;8.950;2023-03-24T15:01:21;9.20;;;4.50;;
52440;SDS011;39611;46.062;8.950;2023-03-24T15:03:58;7.95;;;4.57;;
52440;SDS011;39611;46.062;8.950;2023-03-24T15:06:27;10.15;;;4.80;;
52440;SDS011;39611;46.062;8.950;2023-03-24T15:08:55;8.60;;;4.88;;
52440;SDS011;39611;46.062;8.950;2023-03-24T15:11:32;10.05;;;5.20;;
52440;SDS011;39611;46.062;8.950;2023-03-24T15:14:02;10.73;;;4.75;;
52440;SDS011;39611;46.062;8.950;2023-03-24T15:16:38;10.35;;;5.38;;
52440;SDS011;39611;46.062;8.950;2023-03-24T15:19:09;9.00;;;4.38;;
52440;SDS011;39611;46.062;8.950;2023-03-24T15:21:48;7.63;;;4.47;;
52440;SDS011;39611;46.062;8.950;2023-03-24T15:26:47;7.90;;;4.93;;
52440;SDS011;39611;46.062;8.950;2023-03-24T15:29:14;7.88;;;4.47;;
52440;SDS011;39611;46.062;8.950;2023-03-24T15:31:40;10.68;;;5.20;;
52440;SDS011;39611;46.062;8.950;2023-03-24T15:34:24;8.00;;;4.55;;
52440;SDS011;39611;46.062;8.950;2023-03-24T15:36:58;9.18;;;4.60;;
52440;SDS011;39611;46.062;8.950;2023-03-24T15:39:36;6.72;;;4.10;;
52440;SDS011;39611;46.062;8.950;2023-03-24T15:42:05;10.48;;;4.70;;
52440;SDS011;39611;46.062;8.950;2023-03-24T15:44:36;8.00;;;4.88;;
52440;SDS011;39611;46.062;8.950;2023-03-24T15:47:09;11.68;;;4.90;;
52440;SDS011;39611;46.062;8.950;2023-03-24T15:49:54;10.50;;;5.13;;
52440;SDS011;39611;46.062;8.950;2023-03-24T15:52:23;21.98;;;8.70;;
52440;SDS011;39611;46.062;8.950;2023-03-24T15:55:46;30.48;;;12.07;;
52440;SDS011;39611;46.062;8.950;2023-03-24T15:57:58;12.30;;;6.50;;
52440;SDS011;39611;46.062;8.950;2023-03-24T16:00:28;9.52;;;5.88;;
52440;SDS011;39611;46.062;8.950;2023-03-24T16:03:01;9.57;;;5.72;;
52440;SDS011;39611;46.062;8.950;2023-03-24T16:05:32;9.30;;;5.45;;
52440;SDS011;39611;46.062;8.950;2023-03-24T16:08:04;10.82;;;5.47;;
52440;SDS011;39611;46.062;8.950;2023-03-24T16:13:36;8.88;;;5.60;;
52440;SDS011;39611;46.062;8.950;2023-03-24T16:18:44;9.90;;;5.47;;
52440;SDS011;39611;46.062;8.950;2023-03-24T16:21:12;10.55;;;5.10;;
52440;SDS011;39611;46.062;8.950;2023-03-24T16:23:44;20.33;;;8.48;;
52440;SDS011;39611;46.062;8.950;2023-03-24T16:28:42;17.15;;;9.05;;
52440;SDS011;39611;46.062;8.950;2023-03-24T16:31:42;66.47;;;26.48;;
52440;SDS011;39611;46.062;8.950;2023-03-24T16:34:01;16.25;;;8.57;;
52440;SDS011;39611;46.062;8.950;2023-03-24T16:36:27;21.45;;;7.78;;
52440;SDS011;39611;46.062;8.950;2023-03-24T16:38:55;11.82;;;6.10;;
52440;SDS011;39611;46.062;8.950;2023-03-24T16:41:23;13.80;;;6.13;;
52440;SDS011;39611;46.062;8.950;2023-03-24T16:43:50;11.48;;;6.18;;
52440;SDS011;39611;46.062;8.950;2023-03-24T16:46:28;10.38;;;5.30;;
52440;SDS011;39611;46.062;8.950;2023-03-24T16:48:56;10.73;;;5.47;;
52440;SDS011;39611;46.062;8.950;2023-03-24T16:51:23;9.65;;;4.75;;
52440;SDS011;39611;46.062;8.950;2023-03-24T16:53:49;10.23;;;4.95;;
52440;SDS011;39611;46.062;8.950;2023-03-24T16:56:16;25.73;;;9.27;;
52440;SDS011;39611;46.062;8.950;2023-03-24T16:58:45;18.33;;;9.63;;
52440;SDS011;39611;46.062;8.950;2023-03-24T17:01:16;17.13;;;8.35;;
52440;SDS011;39611;46.062;8.950;2023-03-24T17:03:54;17.88;;;8.32;;
52440;SDS011;39611;46.062;8.950;2023-03-24T17:06:23;13.70;;;7.15;;
52440;SDS011;39611;46.062;8.950;2023-03-24T17:08:51;35.75;;;15.15;;
52440;SDS011;39611;46.062;8.950;2023-03-24T17:11:19;23.05;;;9.13;;
52440;SDS011;39611;46.062;8.950;2023-03-24T17:13:51;13.40;;;5.93;;
52440;SDS011;39611;46.062;8.950;2023-03-24T17:16:19;10.50;;;5.88;;
52440;SDS011;39611;46.062;8.950;2023-03-24T17:18:45;12.65;;;5.90;;
52440;SDS011;39611;46.062;8.950;2023-03-24T17:21:12;12.60;;;6.07;;
52440;SDS011;39611;46.062;8.950;2023-03-24T17:23:42;12.25;;;6.65;;
52440;SDS011;39611;46.062;8.950;2023-03-24T17:26:11;52.03;;;21.08;;
52440;SDS011;39611;46.062;8.950;2023-03-24T17:28:38;12.05;;;6.43;;
52440;SDS011;39611;46.062;8.950;2023-03-24T17:31:05;14.00;;;6.53;;
52440;SDS011;39611;46.062;8.950;2023-03-24T17:33:31;29.77;;;13.20;;
52440;SDS011;39611;46.062;8.950;2023-03-24T17:35:58;14.02;;;7.28;;
52440;SDS011;39611;46.062;8.950;2023-03-24T17:38:25;15.15;;;7.60;;
52440;SDS011;39611;46.062;8.950;2023-03-24T17:40:58;17.20;;;7.88;;
52440;SDS011;39611;46.062;8.950;2023-03-24T17:43:26;75.18;;;23.58;;